Time;durP1;ratioP1;P1;durP2;ratioP2;P2;SDS_P1;SDS_P2;PMS_P1;PMS_P2;Temp;Humidity;BMP_temperature;BMP_pressure;BME280_temperature;BME280_humidity;BME280_pressure;Samples;Min_cycle;Max_cycle;Signal;HPM_P1;HPM_P2
2023/10/21 00:02:02;;;;;;;1.98;1.40;;;13.40;99.90;;;;;;5015815;28;20299;-82
2023/10/21 00:04:30;;;;;;;2.50;1.45;;;13.40;99.90;;;;;;5014461;28;20199;-82
2023/10/21 00:06:58;;;;;;;3.03;1.33;;;13.40;99.90;;;;;;5016019;28;20537;-82
2023/10/21 00:09:26;;;;;;;1.88;1.40;;;13.30;99.90;;;;;;5050321;28;20227;-82
2023/10/21 00:11:54;;;;;;;2.28;1.73;;;13.40;99.90;;;;;;5032514;28;20199;-82
2023/10/21 00:14:22;;;;;;;1.73;1.17;;;13.40;99.90;;;;;;5017301;28;20203;-82
2023/10/21 00:16:49;;;;;;;1.85;1.50;;;13.40;99.90;;;;;;5035843;28;20198;-82
2023/10/21 00:19:17;;;;;;;2.42;1.10;;;13.40;99.90;;;;;;5019451;28;20226;-82
2023/10/21 00:21:44;;;;;;;3.08;1.30;;;13.50;99.90;;;;;;5017340;28;20210;-82
2023/10/21 00:24:12;;;;;;;3.40;1.17;;;13.50;99.90;;;;;;5015048;28;20203;-82
2023/10/21 00:26:48;;;;;;;1.23;1.13;;;13.50;99.90;;;;;;5017267;28;20195;-82
2023/10/21 00:29:16;;;;;;;1.75;1.10;;;13.60;99.90;;;;;;5010670;28;20218;-82
2023/10/21 00:31:45;;;;;;;2.35;1.00;;;13.60;99.90;;;;;;5017097;28;20553;-82
2023/10/21 00:34:12;;;;;;;1.10;1.00;;;13.70;99.90;;;;;;5016819;28;20226;-83
2023/10/21 00:36:40;;;;;;;2.97;1.20;;;13.60;99.90;;;;;;5017075;28;20199;-82
2023/10/21 00:39:10;;;;;;;3.70;1.10;;;13.70;99.90;;;;;;5015172;28;20238;-82
2023/10/21 00:41:38;;;;;;;3.63;1.33;;;13.70;99.90;;;;;;5016945;28;20234;-82
2023/10/21 00:44:08;;;;;;;2.22;1.30;;;13.60;99.90;;;;;;5019734;28;20557;-82
2023/10/21 00:46:36;;;;;;;1.75;0.95;;;13.70;99.90;;;;;;5013324;28;20211;-82
2023/10/21 00:49:04;;;;;;;3.63;1.02;;;13.70;99.90;;;;;;5016839;28;20219;-82
2023/10/21 00:51:32;;;;;;;2.10;1.05;;;13.70;99.90;;;;;;5034829;28;20195;-82
2023/10/21 00:54:02;;;;;;;0.98;0.88;;;13.70;99.90;;;;;;5016598;28;20206;-82
2023/10/21 00:56:30;;;;;;;2.20;1.00;;;13.70;99.90;;;;;;5015497;28;20673;-82
2023/10/21 00:58:58;;;;;;;2.72;1.00;;;13.70;99.90;;;;;;5036828;28;20219;-82
2023/10/21 01:01:27;;;;;;;1.40;1.10;;;13.70;99.90;;;;;;5014859;28;20215;-82
2023/10/21 01:03:54;;;;;;;0.90;0.90;;;13.70;99.90;;;;;;5024617;28;20198;-82
2023/10/21 01:06:22;;;;;;;1.70;1.05;;;13.70;99.90;;;;;;5018122;28;20219;-82
2023/10/21 01:08:49;;;;;;;3.40;1.02;;;13.70;99.90;;;;;;5031425;28;20225;-82
2023/10/21 01:11:17;;;;;;;2.28;1.00;;;13.80;99.90;;;;;;5015971;28;20319;-83
2023/10/21 01:13:46;;;;;;;1.13;0.95;;;13.80;99.90;;;;;;5014612;28;20194;-82
2023/10/21 01:16:13;;;;;;;3.13;1.20;;;13.80;99.90;;;;;;5012261;28;20211;-82
2023/10/21 01:18:43;;;;;;;3.40;0.98;;;13.80;99.90;;;;;;5029174;28;20237;-82
2023/10/21 01:21:10;;;;;;;2.10;0.98;;;13.80;99.90;;;;;;5035201;28;20206;-82
2023/10/21 01:23:39;;;;;;;2.30;1.15;;;13.80;99.90;;;;;;5032765;28;20196;-82
2023/10/21 01:26:07;;;;;;;1.60;0.90;;;13.80;99.90;;;;;;5022616;28;20564;-83
2023/10/21 01:28:36;;;;;;;2.42;1.05;;;13.90;99.90;;;;;;5026267;28;20224;-82
2023/10/21 01:31:04;;;;;;;2.35;1.30;;;13.90;99.90;;;;;;5013154;28;20199;-83
2023/10/21 01:33:32;;;;;;;1.05;0.95;;;13.90;99.90;;;;;;5013524;28;20704;-83
2023/10/21 01:35:59;;;;;;;1.05;0.85;;;13.90;99.90;;;;;;5043527;28;20190;-83
2023/10/21 01:38:27;;;;;;;1.42;0.98;;;14.00;99.90;;;;;;5015145;28;20229;-82
2023/10/21 01:40:56;;;;;;;1.20;1.10;;;13.90;99.90;;;;;;5027338;28;20213;-82
2023/10/21 01:43:23;;;;;;;0.98;0.90;;;14.00;99.90;;;;;;5028203;28;20208;-83
2023/10/21 01:45:51;;;;;;;1.45;0.90;;;14.00;99.90;;;;;;5047696;28;20660;-82
2023/10/21 01:48:18;;;;;;;1.48;0.90;;;14.00;99.90;;;;;;5020512;28;20734;-83
2023/10/21 01:50:45;;;;;;;1.42;1.10;;;14.00;99.90;;;;;;5017005;28;20194;-82
2023/10/21 01:53:13;;;;;;;1.83;1.20;;;14.00;99.90;;;;;;5009036;28;20203;-82
2023/10/21 01:55:42;;;;;;;1.33;1.00;;;14.00;99.90;;;;;;5021058;28;20195;-83
2023/10/21 01:58:11;;;;;;;3.10;1.17;;;14.00;99.90;;;;;;5014155;28;20215;-82
2023/10/21 02:00:38;;;;;;;2.05;0.90;;;14.10;99.90;;;;;;5018763;28;20673;-83
2023/10/21 02:03:06;;;;;;;1.17;1.05;;;14.10;99.90;;;;;;5022201;28;20215;-83
2023/10/21 02:05:34;;;;;;;1.25;1.10;;;14.10;99.90;;;;;;5024130;28;20209;-83
2023/10/21 02:08:02;;;;;;;1.88;1.15;;;14.10;99.90;;;;;;5032421;28;20680;-82
2023/10/21 02:10:30;;;;;;;1.30;1.20;;;14.10;99.90;;;;;;5016296;28;20541;-83
2023/10/21 02:12:58;;;;;;;2.33;1.13;;;14.10;99.90;;;;;;5018843;28;20205;-82
2023/10/21 02:15:27;;;;;;;1.08;0.93;;;14.10;99.90;;;;;;5021518;28;20203;-83
2023/10/21 02:17:54;;;;;;;1.98;1.30;;;14.10;99.90;;;;;;5023825;28;20194;-82
2023/10/21 02:20:22;;;;;;;1.10;1.00;;;14.10;99.90;;;;;;5026758;28;20207;-82
2023/10/21 02:22:50;;;;;;;1.20;0.90;;;14.10;99.90;;;;;;5041246;28;20218;-82
2023/10/21 02:25:17;;;;;;;2.05;1.23;;;14.10;99.90;;;;;;5020500;28;20541;-83
2023/10/21 02:27:45;;;;;;;3.20;1.02;;;14.10;99.90;;;;;;5025222;28;20679;-83
2023/10/21 02:30:15;;;;;;;2.13;0.90;;;14.10;99.90;;;;;;5022067;28;20657;-82
2023/10/21 02:32:45;;;;;;;1.35;0.90;;;14.10;99.90;;;;;;5021973;28;20210;-82
2023/10/21 02:35:13;;;;;;;1.95;0.90;;;14.10;99.90;;;;;;5021223;28;20534;-82
2023/10/21 02:37:41;;;;;;;1.10;1.00;;;14.10;99.90;;;;;;5017587;28;20558;-82
2023/10/21 02:40:11;;;;;;;1.05;0.98;;;14.10;99.90;;;;;;5026251;28;20203;-82
2023/10/21 02:42:38;;;;;;;0.93;0.90;;;14.00;99.90;;;;;;5028510;28;20222;-83
2023/10/21 02:45:07;;;;;;;2.53;1.02;;;14.00;99.90;;;;;;5019377;28;20203;-83
2023/10/21 02:47:35;;;;;;;1.30;1.20;;;14.10;99.90;;;;;;5017852;28;20206;-83
2023/10/21 02:50:04;;;;;;;1.20;1.10;;;14.10;99.90;;;;;;5021363;28;20206;-83
2023/10/21 02:52:32;;;;;;;1.65;0.98;;;14.10;99.90;;;;;;5036673;28;20194;-82
2023/10/21 02:54:59;;;;;;;1.95;1.02;;;14.10;99.90;;;;;;5019299;28;20789;-82
2023/10/21 02:57:27;;;;;;;3.03;1.10;;;14.00;99.90;;;;;;5023528;28;20207;-83
2023/10/21 02:59:54;;;;;;;1.90;1.30;;;14.00;99.90;;;;;;5023943;28;20226;-82
2023/10/21 03:02:22;;;;;;;1.63;0.95;;;13.90;99.90;;;;;;5027277;28;20215;-82
2023/10/21 03:04:55;;;;;;;1.38;0.88;;;13.90;99.90;;;;;;5017425;28;20198;-82
2023/10/21 03:07:24;;;;;;;0.95;0.88;;;13.90;99.90;;;;;;5036454;28;20183;-82
2023/10/21 03:09:52;;;;;;;2.05;1.40;;;13.90;99.90;;;;;;5015705;28;20219;-82
2023/10/21 03:12:20;;;;;;;1.80;1.13;;;13.90;99.90;;;;;;5018344;28;20214;-82
2023/10/21 03:14:47;;;;;;;4.07;1.60;;;13.90;99.90;;;;;;5025819;28;20203;-82
2023/10/21 03:17:15;;;;;;;1.55;1.30;;;13.90;99.90;;;;;;5017405;28;20214;-84
2023/10/21 03:19:42;;;;;;;1.42;1.33;;;13.90;99.90;;;;;;5023083;28;20242;-83
2023/10/21 03:22:10;;;;;;;1.52;1.20;;;13.90;99.90;;;;;;5017449;28;20217;-82
2023/10/21 03:24:38;;;;;;;3.53;1.45;;;13.90;99.90;;;;;;5016396;28;20199;-82
2023/10/21 03:27:06;;;;;;;2.35;1.67;;;13.80;99.90;;;;;;5017697;28;20210;-83
2023/10/21 03:29:33;;;;;;;3.55;1.90;;;13.80;99.90;;;;;;5017186;28;20222;-83
2023/10/21 03:32:02;;;;;;;2.75;2.20;;;13.90;99.90;;;;;;5017254;28;20202;-83
2023/10/21 03:34:30;;;;;;;5.47;2.13;;;13.80;99.90;;;;;;5017482;28;20195;-82
2023/10/21 03:36:57;;;;;;;2.42;1.67;;;13.90;99.90;;;;;;5011062;28;20203;-82
2023/10/21 03:39:26;;;;;;;1.80;1.65;;;13.90;99.90;;;;;;5017067;28;20226;-82
2023/10/21 03:41:54;;;;;;;2.03;1.83;;;13.80;99.90;;;;;;5020082;28;20199;-83
2023/10/21 03:44:22;;;;;;;3.20;2.53;;;13.80;99.90;;;;;;5023682;28;20194;-83
2023/10/21 03:46:50;;;;;;;3.22;2.53;;;13.90;99.90;;;;;;5041847;28;20206;-82
2023/10/21 03:49:18;;;;;;;3.80;2.63;;;13.80;99.90;;;;;;5016844;28;20234;-82
2023/10/21 03:51:45;;;;;;;4.25;2.88;;;13.80;99.90;;;;;;5041204;28;20179;-82
2023/10/21 03:54:13;;;;;;;3.42;2.60;;;13.80;99.90;;;;;;5023908;28;20211;-83
2023/10/21 03:56:41;;;;;;;2.80;2.33;;;13.90;99.90;;;;;;5031697;28;20282;-83
2023/10/21 03:59:10;;;;;;;2.95;2.70;;;13.90;99.90;;;;;;5028575;28;20222;-83
2023/10/21 04:01:38;;;;;;;3.17;2.67;;;13.80;99.90;;;;;;5017093;28;20202;-83
2023/10/21 04:04:06;;;;;;;3.78;2.65;;;13.80;99.90;;;;;;5029941;28;20260;-83
2023/10/21 04:06:34;;;;;;;3.78;2.65;;;13.80;99.90;;;;;;5018759;28;20289;-83
2023/10/21 04:09:02;;;;;;;5.60;3.30;;;13.80;99.90;;;;;;5025398;28;20238;-83
2023/10/21 04:11:30;;;;;;;2.50;2.30;;;13.80;99.90;;;;;;5017218;28;20580;-82
2023/10/21 04:13:57;;;;;;;3.20;2.90;;;13.80;99.90;;;;;;5023373;28;20196;-82
2023/10/21 04:16:26;;;;;;;3.75;3.45;;;13.80;99.90;;;;;;5020066;28;20205;-82
2023/10/21 04:18:54;;;;;;;4.55;3.40;;;13.80;99.90;;;;;;5022168;28;20234;-83
2023/10/21 04:21:21;;;;;;;3.85;3.42;;;13.80;99.90;;;;;;5015260;28;20669;-84
2023/10/21 04:23:49;;;;;;;3.33;3.03;;;13.90;99.90;;;;;;5020584;28;20230;-82
2023/10/21 04:26:16;;;;;;;3.25;2.95;;;13.90;99.90;;;;;;5014254;28;20199;-82
2023/10/21 04:28:44;;;;;;;5.75;2.85;;;13.90;99.90;;;;;;5014377;28;20239;-82
2023/10/21 04:31:12;;;;;;;2.42;2.10;;;13.90;99.90;;;;;;5015083;28;20210;-84
2023/10/21 04:33:41;;;;;;;3.05;2.35;;;13.90;99.90;;;;;;5017597;28;20196;-83
2023/10/21 04:36:08;;;;;;;2.28;1.85;;;13.90;99.90;;;;;;5014537;28;20211;-83
2023/10/21 04:38:36;;;;;;;2.35;2.15;;;13.90;99.90;;;;;;5047191;28;20226;-83
2023/10/21 04:41:03;;;;;;;1.92;1.73;;;13.90;99.90;;;;;;5025821;28;20194;-82
2023/10/21 04:43:31;;;;;;;2.10;1.80;;;13.90;99.90;;;;;;5019532;28;20572;-82
2023/10/21 04:45:58;;;;;;;2.08;1.98;;;13.90;99.90;;;;;;5016252;28;20198;-82
2023/10/21 04:48:26;;;;;;;2.53;2.30;;;14.00;99.90;;;;;;5036010;28;20565;-84
2023/10/21 04:50:55;;;;;;;2.90;2.38;;;13.90;99.90;;;;;;5024809;28;20592;-82
2023/10/21 04:53:23;;;;;;;2.97;2.70;;;13.90;99.90;;;;;;5019662;28;20198;-82
2023/10/21 04:55:50;;;;;;;2.85;2.58;;;14.00;99.90;;;;;;5019649;28;20202;-83
2023/10/21 04:58:18;;;;;;;2.70;2.33;;;14.00;99.90;;;;;;5016683;28;20226;-83
2023/10/21 05:00:45;;;;;;;2.90;2.60;;;14.00;99.90;;;;;;5020299;28;20199;-83
2023/10/21 05:03:13;;;;;;;3.50;2.50;;;14.00;99.90;;;;;;5022354;28;20210;-82
2023/10/21 05:05:42;;;;;;;3.95;2.35;;;14.00;99.90;;;;;;5022522;28;20708;-82
2023/10/21 05:08:11;;;;;;;3.15;2.30;;;14.00;99.90;;;;;;5024475;28;20226;-82
2023/10/21 05:10:38;;;;;;;3.38;2.55;;;14.00;99.90;;;;;;5024656;28;20195;-83
2023/10/21 05:13:06;;;;;;;4.72;2.70;;;14.00;99.90;;;;;;5022280;28;20195;-82
2023/10/21 05:15:36;;;;;;;3.30;2.40;;;14.00;99.90;;;;;;5035489;28;20550;-82
2023/10/21 05:18:04;;;;;;;5.35;2.60;;;14.00;99.90;;;;;;5012012;28;20576;-82
2023/10/21 05:20:32;;;;;;;2.75;2.55;;;14.10;99.90;;;;;;5015084;28;20204;-82
2023/10/21 05:22:59;;;;;;;2.47;2.22;;;14.10;99.90;;;;;;5014395;28;20226;-82
2023/10/21 05:25:28;;;;;;;3.25;2.60;;;14.10;99.90;;;;;;5014457;28;20568;-83
2023/10/21 05:27:56;;;;;;;3.85;2.33;;;14.10;99.90;;;;;;5023082;28;20199;-82
2023/10/21 05:30:23;;;;;;;3.90;2.42;;;14.10;99.90;;;;;;5041043;28;20199;-83
2023/10/21 05:32:51;;;;;;;3.55;2.65;;;14.10;99.90;;;;;;5027585;28;20237;-83
2023/10/21 05:35:19;;;;;;;2.95;2.60;;;14.10;99.90;;;;;;5018421;28;20206;-82
2023/10/21 05:37:46;;;;;;;4.57;2.50;;;14.20;99.90;;;;;;5012486;28;20210;-82
2023/10/21 05:40:14;;;;;;;4.22;2.70;;;14.10;99.90;;;;;;5016061;28;20205;-82
2023/10/21 05:42:43;;;;;;;2.80;2.38;;;14.20;99.90;;;;;;5012869;28;20198;-82
2023/10/21 05:45:10;;;;;;;2.97;2.67;;;14.20;99.90;;;;;;5023124;28;20230;-82
2023/10/21 05:47:38;;;;;;;3.20;2.60;;;14.10;99.90;;;;;;5024679;28;20195;-80
2023/10/21 05:50:06;;;;;;;4.55;2.63;;;14.20;99.90;;;;;;5021424;28;20199;-80
2023/10/21 05:52:34;;;;;;;2.65;2.45;;;14.20;99.90;;;;;;5048042;28;20195;-80
2023/10/21 05:55:04;;;;;;;3.80;2.90;;;14.20;99.90;;;;;;5027066;28;20568;-80
2023/10/21 05:57:33;;;;;;;4.72;2.97;;;14.20;99.90;;;;;;5029936;28;20210;-81
2023/10/21 06:00:03;;;;;;;3.05;2.45;;;14.20;99.90;;;;;;5021717;28;20226;-82
2023/10/21 06:02:37;;;;;;;5.30;2.80;;;14.20;99.90;;;;;;5046655;28;20546;-81
2023/10/21 06:05:14;;;;;;;7.25;3.03;;;14.10;99.90;;;;;;5020209;28;20214;-81
2023/10/21 06:07:41;;;;;;;3.65;3.28;;;14.20;99.90;;;;;;5041782;28;20197;-80
2023/10/21 06:10:10;;;;;;;3.75;2.75;;;14.10;99.90;;;;;;5037800;28;20204;-80
2023/10/21 06:12:39;;;;;;;4.05;2.83;;;14.10;99.90;;;;;;5021249;28;20199;-82
2023/10/21 06:15:09;;;;;;;2.75;2.47;;;14.00;99.90;;;;;;5015893;28;20728;-80
2023/10/21 06:17:39;;;;;;;4.90;3.25;;;14.00;99.90;;;;;;5030696;28;20205;-81
2023/10/21 06:20:08;;;;;;;5.07;3.00;;;14.00;99.90;;;;;;5022588;28;20673;-81
2023/10/21 06:22:37;;;;;;;4.38;3.22;;;14.00;99.90;;;;;;5021864;28;20198;-81
2023/10/21 06:25:06;;;;;;;4.93;3.10;;;14.00;99.90;;;;;;5019314;28;20608;-81
2023/10/21 06:27:34;;;;;;;4.35;2.80;;;14.00;99.90;;;;;;5022653;28;20203;-80
2023/10/21 06:30:01;;;;;;;3.30;2.80;;;14.00;99.90;;;;;;5014433;28;20219;-82
2023/10/21 06:32:31;;;;;;;4.63;2.95;;;14.00;99.90;;;;;;5035170;28;20210;-81
2023/10/21 06:35:00;;;;;;;6.68;3.17;;;14.00;99.90;;;;;;5016617;28;20196;-82
2023/10/21 06:37:28;;;;;;;5.05;3.53;;;14.00;99.90;;;;;;5026374;28;20197;-81
2023/10/21 06:39:56;;;;;;;3.80;2.88;;;14.00;99.90;;;;;;5020913;28;20231;-81
2023/10/21 06:42:24;;;;;;;4.05;3.47;;;14.00;99.90;;;;;;5017396;28;20202;-81
2023/10/21 06:44:51;;;;;;;7.60;3.55;;;14.00;99.90;;;;;;5025757;28;20222;-79
2023/10/21 06:47:19;;;;;;;4.55;3.13;;;14.10;99.90;;;;;;5022554;28;20202;-79
2023/10/21 06:49:53;;;;;;;15.35;6.15;;;14.00;99.90;;;;;;5021743;28;20214;-78
2023/10/21 06:52:21;;;;;;;21.88;6.93;;;14.10;99.90;;;;;;5011522;28;20194;-78
2023/10/21 06:54:50;;;;;;;10.13;4.90;;;14.60;99.90;;;;;;5013619;28;20199;-79
2023/10/21 06:57:21;;;;;;;3.85;2.38;;;14.70;99.90;;;;;;5014933;28;20203;-78
2023/10/21 06:59:48;;;;;;;4.10;2.20;;;14.50;99.90;;;;;;5010677;28;20615;-78
2023/10/21 07:02:17;;;;;;;2.60;2.03;;;14.30;99.90;;;;;;5029723;28;20199;-79
2023/10/21 07:04:45;;;;;;;2.88;2.05;;;14.20;99.90;;;;;;5019911;28;20226;-80
2023/10/21 07:07:14;;;;;;;2.15;1.90;;;14.20;99.90;;;;;;5029229;28;20203;-80
2023/10/21 07:09:41;;;;;;;2.50;1.70;;;14.20;99.90;;;;;;5030562;28;20226;-79
2023/10/21 07:12:11;;;;;;;2.45;1.90;;;14.20;99.90;;;;;;5030365;28;20206;-79
2023/10/21 07:14:38;;;;;;;2.40;1.95;;;14.20;99.90;;;;;;5025563;28;20191;-79
2023/10/21 07:17:05;;;;;;;1.67;1.58;;;14.20;99.90;;;;;;5039255;28;20198;-80
2023/10/21 07:19:33;;;;;;;1.55;1.45;;;14.20;99.90;;;;;;5016141;28;20222;-80
2023/10/21 07:22:00;;;;;;;1.77;1.55;;;14.20;99.90;;;;;;5037226;28;20778;-79
2023/10/21 07:24:29;;;;;;;2.25;1.45;;;14.20;99.90;;;;;;5027694;28;20245;-79
2023/10/21 07:26:56;;;;;;;3.35;1.60;;;14.30;99.90;;;;;;5017658;28;20199;-79
2023/10/21 07:29:24;;;;;;;1.45;1.25;;;14.30;99.90;;;;;;5028244;28;20586;-79
2023/10/21 07:31:51;;;;;;;1.08;1.00;;;14.40;99.90;;;;;;5029683;28;20207;-80
2023/10/21 07:34:19;;;;;;;2.60;1.23;;;14.40;99.90;;;;;;5033030;28;20194;-79
2023/10/21 07:36:47;;;;;;;1.85;1.13;;;14.40;99.90;;;;;;5034015;28;20199;-80
2023/10/21 07:39:15;;;;;;;1.35;1.25;;;14.50;99.90;;;;;;5027906;28;20242;-79
2023/10/21 07:41:44;;;;;;;1.40;1.30;;;14.50;99.90;;;;;;5023393;28;20191;-79
2023/10/21 07:44:13;;;;;;;1.00;0.90;;;14.60;99.90;;;;;;5037514;28;20226;-79
2023/10/21 07:46:41;;;;;;;3.10;1.63;;;14.50;99.90;;;;;;5034765;28;20194;-79
2023/10/21 07:49:08;;;;;;;2.50;1.15;;;14.50;99.90;;;;;;5034390;28;20218;-79
2023/10/21 07:51:36;;;;;;;3.22;1.35;;;14.60;99.90;;;;;;5032067;28;20199;-81
2023/10/21 07:54:03;;;;;;;1.65;1.27;;;14.60;99.90;;;;;;5035531;28;20213;-81
2023/10/21 07:56:34;;;;;;;1.77;1.13;;;14.50;99.90;;;;;;5022773;28;20195;-81
2023/10/21 07:59:03;;;;;;;1.38;1.10;;;14.50;99.90;;;;;;5019899;28;20222;-82
2023/10/21 08:01:30;;;;;;;2.28;1.20;;;14.50;99.90;;;;;;5021504;28;20210;-81
2023/10/21 08:03:58;;;;;;;1.35;0.88;;;14.50;99.90;;;;;;5016360;28;20206;-80
2023/10/21 08:06:27;;;;;;;1.05;0.80;;;14.50;99.90;;;;;;5012931;28;20206;-82
2023/10/21 08:08:55;;;;;;;0.68;0.60;;;14.50;99.90;;;;;;5013015;28;20227;-82
2023/10/21 08:11:22;;;;;;;0.90;0.50;;;14.40;99.90;;;;;;5016309;28;20199;-80
2023/10/21 08:13:51;;;;;;;0.98;0.68;;;14.30;99.90;;;;;;5012697;28;20222;-81
2023/10/21 08:16:19;;;;;;;1.48;0.50;;;14.30;99.90;;;;;;5009801;28;20786;-84
2023/10/21 08:18:47;;;;;;;1.08;0.65;;;14.20;99.90;;;;;;5010682;28;20726;-82
2023/10/21 08:21:14;;;;;;;1.58;0.70;;;14.30;99.90;;;;;;5012698;28;20225;-82
2023/10/21 08:23:42;;;;;;;1.02;0.65;;;14.30;99.90;;;;;;5020864;28;20203;-82
2023/10/21 08:26:09;;;;;;;1.45;0.73;;;14.30;99.90;;;;;;5017001;28;20230;-83
2023/10/21 08:28:37;;;;;;;0.77;0.60;;;14.30;99.90;;;;;;5013201;28;20215;-82
2023/10/21 08:31:04;;;;;;;0.70;0.70;;;14.40;99.90;;;;;;5011820;28;20195;-81
2023/10/21 08:33:33;;;;;;;0.85;0.70;;;14.50;99.90;;;;;;5012701;28;20195;-82
2023/10/21 08:36:01;;;;;;;1.65;1.00;;;14.50;99.90;;;;;;5014799;28;20192;-83
2023/10/21 08:38:29;;;;;;;2.50;0.80;;;14.60;99.90;;;;;;5016463;28;20210;-83
2023/10/21 08:40:57;;;;;;;1.67;0.70;;;14.60;99.90;;;;;;5017160;28;20210;-82
2023/10/21 08:43:24;;;;;;;1.60;0.70;;;14.70;99.90;;;;;;5017223;28;20209;-81
2023/10/21 08:45:57;;;;;;;1.88;0.80;;;14.80;99.90;;;;;;5018712;28;20212;-82
2023/10/21 08:48:29;;;;;;;1.58;0.80;;;14.90;99.90;;;;;;5011179;28;20234;-81
2023/10/21 08:50:59;;;;;;;0.52;0.52;;;15.00;99.90;;;;;;5006359;28;20210;-81
2023/10/21 08:53:27;;;;;;;1.65;0.68;;;14.90;99.90;;;;;;5009419;28;20673;-81
2023/10/21 08:56:01;;;;;;;1.52;0.75;;;14.80;99.90;;;;;;5032539;28;20206;-82
2023/10/21 08:58:44;;;;;;;1.33;0.50;;;14.70;99.90;;;;;;5007508;28;20214;-82
2023/10/21 09:01:14;;;;;;;1.58;0.50;;;14.70;99.90;;;;;;5035162;28;20198;-82
2023/10/21 09:03:43;;;;;;;1.02;0.60;;;14.60;99.90;;;;;;5044621;28;20199;-81
2023/10/21 09:06:20;;;;;;;1.17;0.60;;;14.70;99.90;;;;;;5013862;28;20690;-82
2023/10/21 09:08:54;;;;;;;0.95;0.80;;;14.70;99.90;;;;;;5015693;28;20233;-82
2023/10/21 09:11:25;;;;;;;2.80;0.95;;;14.70;99.90;;;;;;5018035;28;20218;-81
2023/10/21 09:13:58;;;;;;;1.77;0.50;;;14.80;99.90;;;;;;5042050;28;20203;-82
2023/10/21 09:16:31;;;;;;;2.42;0.50;;;14.80;99.90;;;;;;5015260;28;20195;-81
2023/10/21 09:19:00;;;;;;;1.60;0.60;;;14.80;99.90;;;;;;5015416;28;20226;-81
2023/10/21 09:21:37;;;;;;;1.05;0.63;;;14.80;99.90;;;;;;5008073;28;20191;-81
2023/10/21 09:24:06;;;;;;;1.65;0.40;;;14.80;99.90;;;;;;5016383;28;20191;-81
2023/10/21 09:26:34;;;;;;;0.65;0.50;;;14.80;99.90;;;;;;5017475;28;20584;-81
2023/10/21 09:29:07;;;;;;;0.68;0.40;;;14.80;99.90;;;;;;5015984;28;20719;-81
2023/10/21 09:31:51;;;;;;;1.27;0.40;;;14.80;99.90;;;;;;5010090;28;20195;-81
2023/10/21 09:34:27;;;;;;;0.80;0.50;;;14.80;99.90;;;;;;5015322;28;20195;-81
2023/10/21 09:36:57;;;;;;;0.70;0.50;;;14.80;99.90;;;;;;5013476;28;20198;-81
2023/10/21 09:39:26;;;;;;;0.60;0.60;;;14.90;99.90;;;;;;5033066;28;20215;-81
2023/10/21 09:41:53;;;;;;;1.02;0.70;;;14.90;99.90;;;;;;5015628;28;20195;-80
2023/10/21 09:44:21;;;;;;;1.25;0.52;;;15.00;99.90;;;;;;5031676;28;20203;-81
2023/10/21 09:46:50;;;;;;;0.80;0.40;;;15.10;99.90;;;;;;5011084;28;20207;-81
2023/10/21 09:49:18;;;;;;;0.60;0.40;;;15.10;99.90;;;;;;5012688;28;20227;-81
2023/10/21 09:51:57;;;;;;;0.40;0.32;;;15.10;99.90;;;;;;5032904;28;20214;-81
2023/10/21 09:54:34;;;;;;;0.70;0.40;;;15.20;99.90;;;;;;5046131;28;20210;-81
2023/10/21 09:57:03;;;;;;;1.73;0.40;;;15.30;99.90;;;;;;5008368;28;20191;-82
2023/10/21 09:59:32;;;;;;;1.10;0.43;;;15.30;99.90;;;;;;5016256;28;20219;-81
2023/10/21 10:02:01;;;;;;;1.40;0.52;;;15.40;99.90;;;;;;5029270;28;20199;-81
2023/10/21 10:04:28;;;;;;;0.88;0.50;;;15.50;99.90;;;;;;5015249;28;20199;-82
2023/10/21 10:06:59;;;;;;;0.40;0.30;;;15.50;99.90;;;;;;5001560;28;20215;-82
2023/10/21 10:09:30;;;;;;;0.65;0.47;;;15.50;99.90;;;;;;5027902;28;20747;-83
2023/10/21 10:12:00;;;;;;;0.40;0.40;;;15.50;99.90;;;;;;5011628;28;20206;-82
2023/10/21 10:14:29;;;;;;;1.85;0.80;;;15.50;99.90;;;;;;5014822;28;20199;-83
2023/10/21 10:16:57;;;;;;;1.58;0.95;;;15.50;99.90;;;;;;5010963;28;20653;-81
2023/10/21 10:19:38;;;;;;;1.02;0.70;;;15.50;99.90;;;;;;5022596;28;20697;-81
2023/10/21 10:22:19;;;;;;;1.13;0.52;;;15.50;99.90;;;;;;5019289;28;20195;-82
2023/10/21 10:24:56;;;;;;;1.00;0.40;;;15.50;99.90;;;;;;5042800;28;20207;-82
2023/10/21 10:27:36;;;;;;;0.50;0.40;;;15.70;99.90;;;;;;5011809;28;20227;-82
2023/10/21 10:30:09;;;;;;;0.70;0.30;;;15.90;99.90;;;;;;5017633;28;20233;-81
2023/10/21 10:32:43;;;;;;;0.95;0.50;;;16.10;99.90;;;;;;5022199;28;20201;-81
2023/10/21 10:35:28;;;;;;;0.30;0.30;;;16.00;99.90;;;;;;5018119;28;20207;-81
2023/10/21 10:37:55;;;;;;;0.55;0.40;;;16.00;1.00;;;;;;5016744;28;20206;-81
2023/10/21 10:40:34;;;;;;;1.73;0.50;;;15.90;1.00;;;;;;5017632;28;20218;-79
2023/10/21 10:43:10;;;;;;;0.57;0.50;;;16.10;99.90;;;;;;5020360;28;20203;-83
2023/10/21 10:45:38;;;;;;;1.92;0.40;;;16.30;99.90;;;;;;5014419;28;20215;-84
2023/10/21 10:48:07;;;;;;;2.60;0.70;;;16.30;99.90;;;;;;5015676;28;20218;-84
2023/10/21 10:50:36;;;;;;;1.10;0.43;;;16.40;99.90;;;;;;5014320;28;20669;-83
2023/10/21 10:53:15;;;;;;;1.52;0.40;;;16.40;99.90;;;;;;5009373;28;20199;-80
2023/10/21 10:55:50;;;;;;;1.50;0.50;;;16.50;99.90;;;;;;5041966;28;20202;-81
2023/10/21 10:58:21;;;;;;;0.90;0.40;;;16.60;99.90;;;;;;5020179;28;20231;-81
2023/10/21 11:00:51;;;;;;;2.58;0.50;;;16.50;99.90;;;;;;5017304;28;20207;-80
2023/10/21 11:03:27;;;;;;;0.68;0.50;;;16.60;99.90;;;;;;5008121;28;20213;-83
2023/10/21 11:05:56;;;;;;;0.60;0.40;;;16.80;99.90;;;;;;5016222;28;20238;-82
2023/10/21 11:08:23;;;;;;;0.77;0.47;;;17.10;99.90;;;;;;5028131;28;20231;-83
2023/10/21 11:11:01;;;;;;;1.30;0.50;;;17.00;99.90;;;;;;5017316;28;20202;-85
2023/10/21 11:13:29;;;;;;;2.88;0.47;;;17.10;99.90;;;;;;5015713;28;20215;-84
2023/10/21 11:15:57;;;;;;;1.10;0.40;;;16.90;99.90;;;;;;5009822;28;20202;-84
2023/10/21 11:18:28;;;;;;;6.80;0.88;;;17.00;99.90;;;;;;5015957;28;20223;-84
2023/10/21 11:20:57;;;;;;;1.80;0.60;;;16.80;99.90;;;;;;5021538;28;20212;-83
2023/10/21 11:23:24;;;;;;;2.20;0.28;;;16.80;99.90;;;;;;5006498;28;20199;-82
2023/10/21 11:26:08;;;;;;;0.90;0.50;;;17.00;99.90;;;;;;5012821;28;20206;-84
2023/10/21 11:28:44;;;;;;;1.08;0.40;;;17.30;99.90;;;;;;5010507;28;20226;-84
2023/10/21 11:31:13;;;;;;;0.98;0.45;;;17.40;99.90;;;;;;5011209;28;20203;-83
2023/10/21 11:33:40;;;;;;;1.77;0.30;;;17.60;99.90;;;;;;5023824;28;20204;-84
2023/10/21 11:36:08;;;;;;;2.53;0.70;;;17.60;99.90;;;;;;5007817;28;20198;-81
2023/10/21 11:38:38;;;;;;;0.80;0.47;;;17.20;99.90;;;;;;5018609;28;20219;-82
2023/10/21 11:41:14;;;;;;;3.72;0.57;;;16.90;99.90;;;;;;5015275;28;20210;-81
2023/10/21 11:43:48;;;;;;;1.75;0.47;;;16.70;99.90;;;;;;5015861;28;20668;-81
2023/10/21 11:46:17;;;;;;;2.13;0.38;;;16.60;99.90;;;;;;5015070;28;20217;-82
2023/10/21 11:48:45;;;;;;;1.95;0.85;;;16.80;99.90;;;;;;5007985;28;20227;-85
2023/10/21 11:51:16;;;;;;;1.67;0.38;;;17.20;99.90;;;;;;5030137;28;20195;-84
2023/10/21 11:53:43;;;;;;;2.22;0.38;;;17.40;99.90;;;;;;5017361;28;20188;-83
2023/10/21 12:15:49;;;;;;;0.68;0.50;;;17.90;99.90;;;;;;5016098;28;20203;-82
2023/10/21 12:21:42;;;;;;;2.08;0.70;;;17.60;99.90;;;;;;5011007;28;20211;-82
2023/10/21 12:27:17;;;;;;;3.03;1.15;;;17.60;99.90;;;;;;5042457;28;20207;-82
2023/10/21 12:32:44;;;;;;;1.23;0.38;;;17.90;96.80;;;;;;5014154;28;20203;-82
2023/10/21 12:40:50;;;;;;;3.88;0.85;;;18.30;96.90;;;;;;5031178;28;20271;-82
2023/10/21 12:43:24;;;;;;;1.45;0.40;;;18.50;95.70;;;;;;5014818;28;20657;-82
2023/10/21 12:45:54;;;;;;;4.40;1.10;;;18.10;96.10;;;;;;5033250;28;20187;-82
2023/10/21 12:48:21;;;;;;;1.40;0.73;;;17.80;97.00;;;;;;5016120;28;20228;-82
2023/10/21 12:50:50;;;;;;;3.05;0.60;;;17.50;98.10;;;;;;5011891;28;20548;-82
2023/10/21 12:53:17;;;;;;;1.50;0.60;;;17.40;97.90;;;;;;5020826;28;20207;-82
2023/10/21 12:55:45;;;;;;;2.00;0.65;;;17.20;98.40;;;;;;5013446;28;20202;-82
2023/10/21 12:58:14;;;;;;;2.92;0.65;;;17.20;98.40;;;;;;5015021;28;20218;-82
2023/10/21 13:00:43;;;;;;;1.48;0.70;;;17.20;98.90;;;;;;5013587;28;20675;-82
2023/10/21 13:03:12;;;;;;;3.95;0.63;;;17.30;99.20;;;;;;5016732;28;20207;-81
2023/10/21 13:05:40;;;;;;;3.85;1.30;;;17.70;98.40;;;;;;5024136;28;20191;-82
2023/10/21 13:08:09;;;;;;;3.85;0.88;;;18.10;96.90;;;;;;5019925;28;20234;-82
2023/10/21 13:10:36;;;;;;;2.78;0.55;;;18.30;96.40;;;;;;5016140;28;20194;-82
2023/10/21 13:13:04;;;;;;;3.20;0.90;;;18.70;96.00;;;;;;5016021;28;20222;-82
2023/10/21 13:15:32;;;;;;;2.45;0.90;;;18.90;95.10;;;;;;5018201;28;20218;-81
2023/10/21 13:18:03;;;;;;;3.13;0.60;;;18.80;94.30;;;;;;5015792;28;20198;-82
2023/10/21 13:20:32;;;;;;;2.60;0.70;;;18.60;95.00;;;;;;5015331;28;20215;-81
2023/10/21 13:22:59;;;;;;;4.03;0.98;;;18.50;94.40;;;;;;5008596;28;20199;-81
2023/10/21 13:25:27;;;;;;;2.67;1.00;;;18.60;93.50;;;;;;5013730;28;20214;-82
2023/10/21 13:27:54;;;;;;;3.60;0.90;;;18.70;92.80;;;;;;5009311;28;20207;-82
2023/10/21 13:30:22;;;;;;;3.33;1.05;;;18.60;93.00;;;;;;5033613;28;20191;-81
2023/10/21 13:32:51;;;;;;;2.78;0.80;;;18.20;93.50;;;;;;5016156;28;20194;-82